»·PEaware :: SWA3351 KRNO-KLAX

SWA3351 :: KRNO-KLAX

FLIGHT INFORMATION

Flight Status: Arrived
Operator:
Southwest Airlines
More flights by this operator :: More flights under this callsign
Pilot: Brian T. (24242)
Aircraft: BOEING 737-800
(B738)
More flights by this aircraft type
Origin: KRNO Reno/Tahoe Intl
United States
Destination: KLAX Los Angeles Intl
United States
More flights between these airports :: More routes between these airports
Route: +ZEFFR6 DARBI FRA J7 REBRG IRNMN2
File this flight plan on PilotEdge
Remarks: MEL On one radio. Flying in VR (so give me a minute on those freq changes).
Altitude:
(Current/Filed)
35,000ft
Speed:
(Current/Filed)
460kts
Departed: 13-Aug-19 03:51 PM
Arrived: 13-Aug-19 04:59 PM
Distance/Time
Traveled:
339nm/1:08
Distance/Time
To Go:
Arrived

Flight Plot

Page will automatically refresh every two minutes.

Flight plan parsing failed; only flown route is shown


Map Options




Map Legend


Flown Route
Filed Route
Departure Airport
Arrival Airport
Navaid (VOR, NDB)
Fix

Horizontal Profiles

Position Reports

Time Latitude Longitude Heading Altitude Ground
Speed
13-Aug-19 15:08 39.504441 -119.773258 0 4423ft 0kts
13-Aug-19 15:09 39.504441 -119.773258 0 4423ft 0kts
13-Aug-19 15:10 39.504441 -119.773258 0 4423ft 0kts
13-Aug-19 15:11 39.504441 -119.773258 0 4423ft 0kts
13-Aug-19 15:12 39.504441 -119.773258 0 4423ft 0kts
13-Aug-19 15:13 39.504441 -119.773258 0 4423ft 0kts
13-Aug-19 15:14 39.504441 -119.773258 0 4423ft 0kts
13-Aug-19 15:15 39.504441 -119.773258 0 4423ft 0kts
13-Aug-19 15:16 39.504441 -119.773258 0 4423ft 0kts
13-Aug-19 15:17 39.504441 -119.773258 0 4423ft 0kts
13-Aug-19 15:18 39.504441 -119.773258 0 4423ft 0kts
13-Aug-19 15:19 39.504441 -119.773258 0 4423ft 0kts
13-Aug-19 15:20 39.504441 -119.773258 0 4423ft 0kts
13-Aug-19 15:21 39.504441 -119.773258 0 4423ft 0kts
13-Aug-19 15:22 39.504441 -119.773258 0 4423ft 0kts
13-Aug-19 15:23 39.504441 -119.773258 0 4423ft 0kts
13-Aug-19 15:24 39.504441 -119.773258 0 4423ft 0kts
13-Aug-19 15:25 39.504441 -119.773258 0 4423ft 0kts
13-Aug-19 15:26 39.504441 -119.773258 0 4423ft 0kts
13-Aug-19 15:27 39.504441 -119.773258 0 4423ft 0kts
13-Aug-19 15:28 39.504441 -119.773258 0 4423ft 0kts
13-Aug-19 15:29 39.504441 -119.773258 0 4423ft 0kts
13-Aug-19 15:30 39.504441 -119.773258 0 4423ft 0kts
13-Aug-19 15:31 39.504441 -119.773258 0 4423ft 0kts
13-Aug-19 15:32 39.504441 -119.773258 0 4423ft 0kts
13-Aug-19 15:33 39.504441 -119.773258 0 4423ft 0kts
13-Aug-19 15:34 39.504441 -119.773258 0 4423ft 0kts
13-Aug-19 15:35 39.504441 -119.773258 0 4423ft 0kts
13-Aug-19 15:36 39.504441 -119.773258 0 4423ft 0kts
13-Aug-19 15:37 39.504441 -119.773258 0 4423ft 0kts
13-Aug-19 15:38 39.504441 -119.773258 0 4423ft 0kts
13-Aug-19 15:39 39.504441 -119.773258 0 4423ft 0kts
13-Aug-19 15:40 39.504381 -119.773259 0 4423ft 2kts
13-Aug-19 15:41 39.503809 -119.773430 52 4423ft 2kts
13-Aug-19 15:42 39.503727 -119.773797 90 4423ft 0kts
13-Aug-19 15:43 39.503727 -119.773796 90 4423ft 0kts
13-Aug-19 15:44 39.503727 -119.773796 90 4423ft 0kts
13-Aug-19 15:45 39.503723 -119.773313 90 4423ft 0kts
13-Aug-19 15:46 39.504208 -119.771504 2 4423ft 13kts
13-Aug-19 15:47 39.509220 -119.771494 359 4423ft 17kts
13-Aug-19 15:48 39.513698 -119.771132 64 4423ft 12kts
13-Aug-19 15:49 39.513462 -119.769227 179 4423ft 3kts
13-Aug-19 15:50 39.496769 -119.769259 180 4423ft 162kts
13-Aug-19 15:51 39.444468 -119.768526 180 6063ft 201kts
13-Aug-19 15:52 39.379006 -119.770017 179 7396ft 266kts
13-Aug-19 15:53 39.299210 -119.769221 179 9439ft 297kts
13-Aug-19 15:54 39.212362 -119.765686 179 10924ft 340kts
13-Aug-19 15:55 39.112983 -119.761912 179 12725ft 367kts
13-Aug-19 15:56 39.009753 -119.758022 179 15224ft 377kts
13-Aug-19 15:57 38.903829 -119.754041 178 17800ft 387kts
13-Aug-19 15:58 38.794696 -119.749953 179 20071ft 400kts
13-Aug-19 15:59 38.681623 -119.745733 179 22193ft 414kts
13-Aug-19 16:00 38.565104 -119.741398 179 24195ft 427kts
13-Aug-19 16:02 38.444979 -119.736944 179 26050ft 440kts
13-Aug-19 16:03 38.320987 -119.732359 179 27821ft 452kts
13-Aug-19 16:04 38.193927 -119.719451 176 29421ft 466kts
13-Aug-19 16:05 38.064327 -119.704450 176 31249ft 469kts
13-Aug-19 16:06 37.934955 -119.689584 176 33145ft 467kts
13-Aug-19 16:07 37.806318 -119.674853 176 34921ft 463kts
13-Aug-19 16:08 37.679234 -119.660351 176 36529ft 458kts
13-Aug-19 16:09 37.551602 -119.645848 176 37123ft 469kts
13-Aug-19 16:10 37.422240 -119.631178 176 36982ft 466kts
13-Aug-19 16:11 37.293249 -119.616612 176 36977ft 467kts
13-Aug-19 16:12 37.163849 -119.602048 176 36975ft 467kts
13-Aug-19 16:13 37.034659 -119.596423 181 36973ft 463kts
13-Aug-19 16:14 36.906530 -119.598892 180 36973ft 460kts
13-Aug-19 16:15 36.778783 -119.601098 180 36972ft 461kts
13-Aug-19 16:16 36.651096 -119.603300 180 36969ft 460kts
13-Aug-19 16:17 36.522845 -119.605505 180 36971ft 460kts
13-Aug-19 16:18 36.394631 -119.607702 180 36973ft 460kts
13-Aug-19 16:19 36.266292 -119.609894 180 36972ft 460kts
13-Aug-19 16:20 36.138267 -119.612073 180 36972ft 461kts
13-Aug-19 16:21 36.010323 -119.614535 183 36971ft 460kts
13-Aug-19 16:22 35.885767 -119.650464 197 36967ft 460kts
13-Aug-19 16:22 35.784033 -119.688906 197 36963ft 460kts
13-Aug-19 16:24 35.641078 -119.739369 191 36957ft 460kts
13-Aug-19 16:25 35.515411 -119.769478 191 36954ft 460kts
13-Aug-19 16:25 35.410505 -119.794805 189 36959ft 460kts
13-Aug-19 16:27 35.263385 -119.778199 160 36534ft 463kts
13-Aug-19 16:28 35.154107 -119.698367 142 34980ft 463kts
13-Aug-19 16:28 35.068716 -119.618620 142 33294ft 470kts
13-Aug-19 16:30 34.947558 -119.506055 143 29598ft 466kts
13-Aug-19 16:30 34.862783 -119.429100 145 28398ft 455kts
13-Aug-19 16:31 34.763014 -119.340020 145 25986ft 429kts
13-Aug-19 16:33 34.654791 -119.245226 145 23662ft 399kts
13-Aug-19 16:33 34.580907 -119.181471 145 21904ft 384kts
13-Aug-19 16:34 34.496491 -119.107136 144 19848ft 368kts
13-Aug-19 16:35 34.415070 -119.035503 145 17836ft 356kts
13-Aug-19 16:36 34.336089 -118.967142 144 15891ft 342kts
13-Aug-19 16:37 34.261556 -118.899310 143 13988ft 332kts
13-Aug-19 16:38 34.190341 -118.833979 142 12717ft 303kts
13-Aug-19 16:39 34.128421 -118.771050 137 11565ft 285kts
13-Aug-19 16:40 34.070259 -118.707677 137 10192ft 280kts
13-Aug-19 16:41 34.028274 -118.633824 105 9083ft 269kts
13-Aug-19 16:42 34.018421 -118.544590 97 7940ft 264kts
13-Aug-19 16:43 34.023778 -118.460151 81 7258ft 239kts
13-Aug-19 16:44 34.035461 -118.382496 81 5895ft 234kts
13-Aug-19 16:45 34.046945 -118.306071 82 4499ft 231kts
13-Aug-19 16:46 34.058504 -118.229626 82 3095ft 228kts
13-Aug-19 16:47 34.069920 -118.154433 82 2584ft 229kts
13-Aug-19 16:48 34.066810 -118.083715 140 2580ft 199kts
13-Aug-19 16:49 34.015424 -118.066421 171 2579ft 194kts
13-Aug-19 16:50 33.963781 -118.049576 165 2583ft 194kts
13-Aug-19 16:51 33.934542 -118.079712 286 2591ft 182kts
13-Aug-19 16:52 33.954754 -118.134528 291 2001ft 174kts
13-Aug-19 16:53 33.972845 -118.189310 269 1986ft 173kts
13-Aug-19 16:54 33.967909 -118.247096 261 1988ft 171kts
13-Aug-19 16:55 33.962393 -118.301600 262 1791ft 154kts
13-Aug-19 16:56 33.957376 -118.350629 262 1001ft 139kts
13-Aug-19 16:57 33.952656 -118.396909 263 248ft 138kts
13-Aug-19 16:58 33.949855 -118.423506 261 133ft 35kts
13-Aug-19 16:59 33.946406 -118.426619 83 133ft 14kts
13-Aug-19 17:00 33.947139 -118.419220 83 133ft 22kts
13-Aug-19 17:01 33.948062 -118.411822 83 133ft 21kts
13-Aug-19 17:02 33.948774 -118.404692 84 133ft 21kts
13-Aug-19 17:03 33.948391 -118.400244 142 133ft 9kts
13-Aug-19 17:04 33.947322 -118.400671 263 133ft 0kts
13-Aug-19 17:05 33.947321 -118.400675 263 133ft 0kts
13-Aug-19 17:06 33.947321 -118.400675 263 133ft 0kts
13-Aug-19 17:07 33.947321 -118.400675 263 133ft 0kts
13-Aug-19 17:08 33.947321 -118.400675 263 133ft 0kts
13-Aug-19 17:09 33.947321 -118.400675 263 133ft 0kts
13-Aug-19 17:10 33.947321 -118.400675 263 133ft 0kts
13-Aug-19 17:11 33.947321 -118.400675 263 133ft 0kts
13-Aug-19 17:12 33.947321 -118.400675 263 133ft 0kts

Navigation Log

Ident Type
Flight plan parsing failed, navigation log unavailable